Estación de Lolol
Ultimos registro cada 15 minutos 48
| N° | Estación | Fecha / Hora | Temperatura | Humedad | Lluvia | Velocidad | Dirección | Radiación | Presion |
| 48 | Lolol | 06-09-2026 11:45 | 15,9 | 61 | 0 | 1,8 | 139 | 701 | 1011,6 |
| 47 | Lolol | 06-09-2026 11:30 | 15,1 | 65 | 0 | 0,4 | 249 | 687 | 1011,8 |
| 46 | Lolol | 06-09-2026 11:15 | 14,1 | 66 | 0 | 0,9 | 258 | 661 | 1011,8 |
| 45 | Lolol | 06-09-2026 11:00 | 13,1 | 68 | 0 | 0,4 | 262 | 640 | 1011,9 |
| 44 | Lolol | 06-09-2026 10:45 | 12 | 75 | 0 | 0,9 | 166 | 606 | 1011,7 |
| 43 | Lolol | 06-09-2026 10:30 | 10,9 | 81 | 0 | 0,4 | 254 | 575 | 1011,9 |
| 42 | Lolol | 06-09-2026 10:15 | 9,9 | 84 | 0 | 0 | 281 | 501 | 1012 |
| 41 | Lolol | 06-09-2026 10:00 | 9 | 87 | 0 | 0,4 | 251 | 278 | 1012 |
| 40 | Lolol | 06-09-2026 09:45 | 7,9 | 92 | 0 | 0 | 213 | 278 | 1012,1 |
| 39 | Lolol | 06-09-2026 09:30 | 6,9 | 96 | 0 | 0 | 245 | 417 | 1012,2 |
| 38 | Lolol | 06-09-2026 09:15 | 5,9 | 96 | 0 | 0 | 216 | 380 | 1012,2 |
| 37 | Lolol | 06-09-2026 09:00 | 4,9 | 95 | 0 | 0 | 153 | 313 | 1012,3 |
| 36 | Lolol | 06-09-2026 08:45 | 4,1 | 95 | 0 | 0 | 249 | 257 | 1012,2 |
| 35 | Lolol | 06-09-2026 08:30 | 3,2 | 95 | 0 | 0 | 247 | 225 | 1011,7 |
| 34 | Lolol | 06-09-2026 08:15 | 2,3 | 95 | 0 | 0 | 193 | 186 | 1011,7 |
| 33 | Lolol | 06-09-2026 08:00 | 1,4 | 94 | 0 | 0 | 193 | 104 | 1011,5 |
| 32 | Lolol | 06-09-2026 07:45 | 1,1 | 94 | 0 | 0 | 193 | 51 | 1011,3 |
| 31 | Lolol | 06-09-2026 07:30 | 1,1 | 93 | 0 | 0 | 193 | 26 | 1011,3 |
| 30 | Lolol | 06-09-2026 07:15 | 1,2 | 94 | 0 | 0 | 193 | 11 | 1011,3 |
| 29 | Lolol | 06-09-2026 07:00 | 1,2 | 93 | 0 | 0 | 193 | 0 | 1011,3 |
| 28 | Lolol | 06-09-2026 06:45 | 1,5 | 93 | 0 | 0 | 193 | 0 | 1011,2 |
| 27 | Lolol | 06-09-2026 06:30 | 1,7 | 93 | 0 | 0 | 193 | 0 | 1011,2 |
| 26 | Lolol | 06-09-2026 06:15 | 1,8 | 93 | 0 | 0 | 193 | 0 | 1011,2 |
| 25 | Lolol | 06-09-2026 06:00 | 1,9 | 93 | 0 | 0 | 193 | 0 | 1011,2 |
| 24 | Lolol | 06-09-2026 05:45 | 2,1 | 93 | 0 | 0 | 193 | 0 | 1011 |
| 23 | Lolol | 06-09-2026 05:30 | 2,1 | 92 | 0 | 0 | 193 | 0 | 1011,1 |
| 22 | Lolol | 06-09-2026 05:15 | 2,3 | 93 | 0 | 0 | 193 | 0 | 1011,1 |
| 21 | Lolol | 06-09-2026 05:00 | 2,6 | 92 | 0 | 0 | 193 | 0 | 1010,9 |
| 20 | Lolol | 06-09-2026 04:45 | 2,6 | 92 | 0 | 0 | 193 | 0 | 1010,9 |
| 19 | Lolol | 06-09-2026 04:30 | 2,8 | 92 | 0 | 0 | 193 | 0 | 1011 |
| 18 | Lolol | 06-09-2026 04:15 | 2,9 | 92 | 0 | 0 | 193 | 0 | 1010,9 |
| 17 | Lolol | 06-09-2026 04:00 | 3,2 | 92 | 0 | 0 | 193 | 0 | 1010,9 |
| 16 | Lolol | 06-09-2026 03:45 | 3,5 | 92 | 0 | 0 | 193 | 0 | 1011,2 |
| 15 | Lolol | 06-09-2026 03:30 | 3,7 | 93 | 0 | 0 | 193 | 0 | 1011,2 |
| 14 | Lolol | 06-09-2026 03:15 | 3,7 | 92 | 0 | 0 | 193 | 0 | 1011,5 |
| 13 | Lolol | 06-09-2026 03:00 | 3,7 | 92 | 0 | 0 | 193 | 0 | 1011,5 |
| 12 | Lolol | 06-09-2026 02:45 | 3,9 | 92 | 0 | 0 | 193 | 0 | 1011,8 |
| 11 | Lolol | 06-09-2026 02:30 | 4 | 91 | 0 | 0 | 193 | 0 | 1012,1 |
| 10 | Lolol | 06-09-2026 02:15 | 4,3 | 91 | 0 | 0 | 193 | 0 | 1012,3 |
| 9 | Lolol | 06-09-2026 02:00 | 4,5 | 91 | 0 | 0 | 193 | 0 | 1012,5 |
| 8 | Lolol | 06-09-2026 01:45 | 4,7 | 91 | 0 | 0 | 193 | 0 | 1012,4 |
| 7 | Lolol | 06-09-2026 01:30 | 4,9 | 91 | 0 | 0 | 193 | 0 | 1012,7 |
| 6 | Lolol | 06-09-2026 01:15 | 4,9 | 91 | 0 | 0 | 193 | 0 | 1012,8 |
| 5 | Lolol | 06-09-2026 01:00 | 5,1 | 90 | 0 | 0 | 193 | 0 | 1013,1 |
| 4 | Lolol | 06-09-2026 00:45 | 5,4 | 90 | 0 | 0 | 193 | 0 | 1013 |
| 3 | Lolol | 06-09-2026 00:30 | 5,7 | 90 | 0 | 0 | 193 | 0 | 1013,2 |
| 2 | Lolol | 06-09-2026 00:15 | 6 | 90 | 0 | 0 | 193 | 0 | 1013,2 |
| 1 | Lolol | 06-09-2026 00:00 | 6,2 | 90 | 0 | 0 | 193 | 0 | 1013,4 |